This is the latest recevied weather packets stored in our database for station/object KG5CK-1. If no packets are shown the sender has not sent any weather packets the latest 1 day(s).
| Time | Temp. | Humidity | Pressure | Rain* | Wind** | Luminosity | Snow |
|---|---|---|---|---|---|---|---|
| 1778013183 | 31.11° C | 60% | 1000.5 hPa | 0 mm | 0.45 m/s, 104° | - | - |
| 1778013063 | 31.11° C | 60% | 1000.5 hPa | 0 mm | 0.45 m/s, 104° | - | - |
| 1778013003 | 31.67° C | 60% | 1000.4 hPa | 0 mm | 0.89 m/s, 97° | - | - |
| 1778012943 | 31.67° C | 60% | 1000.4 hPa | 0 mm | 0.89 m/s, 97° | - | - |
| 1778011623 | 31.11° C | 61% | 1000.6 hPa | 0 mm | 0.89 m/s, 63° | - | - |
| 1778011023 | 30.56° C | 63% | 1000.5 hPa | 0 mm | 1.79 m/s, 248° | - | - |
| 1778010723 | 31.11° C | 63% | 1000.5 hPa | 0 mm | 1.34 m/s, 147° | - | - |
| 1778010603 | 30.56° C | 65% | 1000.6 hPa | 0 mm | 0.89 m/s, 146° | - | - |
| 1778010243 | 30.56° C | 64% | 1000.9 hPa | 0 mm | 1.79 m/s, 127° | - | - |
| 1778010183 | 30.56° C | 64% | 1000.9 hPa | 0 mm | 1.79 m/s, 127° | - | - |
| 1778010123 | 30.56° C | 64% | 1000.9 hPa | 0 mm | 1.79 m/s, 127° | - | - |
| 1778008623 | 29.44° C | 68% | 1000.7 hPa | 0 mm | 0.89 m/s, 133° | - | - |
| 1778008563 | 29.44° C | 68% | 1000.7 hPa | 0 mm | 0.89 m/s, 133° | - | - |
| 1778008143 | 30° C | 69% | 1000.7 hPa | 0 mm | 2.68 m/s, 175° | - | - |
| 1778008023 | 30° C | 69% | 1000.7 hPa | 0 mm | 2.68 m/s, 175° | - | - |
| 1778007663 | 29.44° C | 67% | 1000.8 hPa | 0 mm | 0.45 m/s, 47° | - | - |
| 1778007543 | 29.44° C | 69% | 1000.8 hPa | 0 mm | 0.89 m/s, 68° | - | - |
| 1778007483 | 29.44° C | 69% | 1000.8 hPa | 0 mm | 0.89 m/s, 68° | - | - |
| 1778007363 | 29.44° C | 69% | 1000.8 hPa | 0 mm | 0.89 m/s, 68° | - | - |
| 1778006883 | 28.89° C | 69% | 1001 hPa | 0 mm | 2.24 m/s, 187° | - | - |
| 1778006763 | 28.89° C | 69% | 1001 hPa | 0 mm | 2.24 m/s, 187° | - | - |
| 1778006643 | 28.89° C | 69% | 1001 hPa | 0 mm | 1.79 m/s, 138° | - | - |
| 1778006283 | 28.89° C | 71% | 1001 hPa | 0 mm | 1.79 m/s, 152° | - | - |
| 1778006163 | 28.89° C | 71% | 1001 hPa | 0 mm | 1.79 m/s, 152° | - | - |
| 1778006043 | 28.33° C | 70% | 1001 hPa | 0 mm | 0.89 m/s, 110° | - | - |
* Rain latest hour (hover to see other rain measurements)
** Current wind speed in m/s (hover to see current wind gust speed)